Time;durP1;ratioP1;P1;durP2;ratioP2;P2;SDS_P1;SDS_P2;PMS_P1;PMS_P2;Temp;Humidity;BMP_temperature;BMP_pressure;BME280_temperature;BME280_humidity;BME280_pressure;Samples;Min_cycle;Max_cycle;Signal;HPM_P1;HPM_P2
2022/08/30 00:01:29;;;;;;;;;;;13.10;99.90;;;;;;5017503;28;20360;-74
2022/08/30 00:03:56;;;;;;;;;;;13.10;99.90;;;;;;5010451;28;19925;-73
2022/08/30 00:06:23;;;;;;;;;;;13.20;99.90;;;;;;5019893;28;20402;-74
2022/08/30 00:08:49;;;;;;;;;;;13.20;99.90;;;;;;5006574;28;20633;-74
2022/08/30 00:11:17;;;;;;;;;;;13.30;99.90;;;;;;4999662;28;19932;-74
2022/08/30 00:13:43;;;;;;;;;;;13.20;99.90;;;;;;4994679;28;20443;-74
2022/08/30 00:16:11;;;;;;;;;;;13.30;99.90;;;;;;4999152;28;19961;-74
2022/08/30 00:18:37;;;;;;;;;;;13.30;99.90;;;;;;5008853;28;19940;-74
2022/08/30 00:21:03;;;;;;;;;;;13.30;99.90;;;;;;4999246;28;20381;-74
2022/08/30 00:23:28;;;;;;;;;;;13.30;99.90;;;;;;4997798;28;19926;-74
2022/08/30 00:25:54;;;;;;;;;;;13.30;99.90;;;;;;4994891;28;19921;-74
2022/08/30 00:28:20;;;;;;;;;;;13.30;99.90;;;;;;4998996;28;19925;-74
2022/08/30 00:30:45;;;;;;;;;;;13.30;99.90;;;;;;5009025;28;20442;-74
2022/08/30 00:33:11;;;;;;;;;;;13.30;99.90;;;;;;4988831;28;19917;-73
2022/08/30 00:35:38;;;;;;;;;;;13.40;99.90;;;;;;5019236;28;19926;-75
2022/08/30 00:38:04;;;;;;;;;;;13.40;99.90;;;;;;5001863;28;19917;-74
2022/08/30 00:40:30;;;;;;;;;;;13.40;99.90;;;;;;5002255;28;19917;-74
2022/08/30 00:42:57;;;;;;;;;;;13.40;99.90;;;;;;5017270;28;19924;-73
2022/08/30 00:45:25;;;;;;;;;;;13.40;99.90;;;;;;5018004;28;20007;-73
2022/08/30 00:47:51;;;;;;;;;;;13.40;99.90;;;;;;5005306;28;19987;-74
2022/08/30 00:50:19;;;;;;;;;;;13.40;99.90;;;;;;5009106;28;19922;-74
2022/08/30 00:52:46;;;;;;;;;;;13.40;99.90;;;;;;5002378;28;19922;-74
2022/08/30 00:55:13;;;;;;;;;;;13.40;99.90;;;;;;5005147;28;20269;-74
2022/08/30 00:57:40;;;;;;;;;;;13.30;99.90;;;;;;5018482;28;19913;-74
2022/08/30 01:00:06;;;;;;;;;;;13.40;99.90;;;;;;5018469;28;19920;-74
2022/08/30 01:02:32;;;;;;;;;;;13.40;99.90;;;;;;5010107;28;20015;-74
2022/08/30 01:04:59;;;;;;;;;;;13.30;99.90;;;;;;5000179;28;20092;-75
2022/08/30 01:07:25;;;;;;;;;;;13.30;99.90;;;;;;4991630;28;19947;-74
2022/08/30 01:09:50;;;;;;;;;;;13.30;99.90;;;;;;5010345;28;20408;-74
2022/08/30 01:12:16;;;;;;;;;;;13.30;99.90;;;;;;5015895;28;20357;-74
2022/08/30 01:14:42;;;;;;;;;;;13.30;99.90;;;;;;5001913;28;19995;-73
2022/08/30 01:17:08;;;;;;;;;;;13.30;99.90;;;;;;5014330;28;19956;-74
2022/08/30 01:19:42;;;;;;;;;;;13.30;99.90;;;;;;5022313;28;20372;-74
2022/08/30 01:22:28;;;;;;;;;;;13.30;99.90;;;;;;4999118;28;20067;-74
2022/08/30 01:24:55;;;;;;;;;;;13.20;99.90;;;;;;5005575;28;19927;-74
2022/08/30 01:27:21;;;;;;;;;;;13.30;99.90;;;;;;5020046;28;20408;-74
2022/08/30 01:29:47;;;;;;;;;;;13.30;99.90;;;;;;5022241;28;19952;-74
2022/08/30 01:32:20;;;;;;;;;;;13.30;99.90;;;;;;4993581;28;19961;-74
2022/08/30 01:34:49;;;;;;;;;;;13.20;99.90;;;;;;4998647;28;19922;-74
2022/08/30 01:37:16;;;;;;;;;;;13.30;99.90;;;;;;4997935;28;20353;-75
2022/08/30 01:39:44;;;;;;;;;;;13.30;99.90;;;;;;5011812;28;19939;-74
2022/08/30 01:42:09;;;;;;;;;;;13.30;99.90;;;;;;5015386;28;19917;-74
2022/08/30 01:44:35;;;;;;;;;;;13.30;99.90;;;;;;5002517;28;19913;-74
2022/08/30 01:47:00;;;;;;;;;;;13.30;99.90;;;;;;5003511;28;19925;-74
2022/08/30 01:49:26;;;;;;;;;;;13.30;99.90;;;;;;5013844;28;20024;-74
2022/08/30 01:51:52;;;;;;;;;;;13.30;99.90;;;;;;5010114;28;19917;-74
2022/08/30 01:54:17;;;;;;;;;;;13.30;99.90;;;;;;5017434;28;19913;-74
2022/08/30 01:56:43;;;;;;;;;;;13.20;99.90;;;;;;4998470;28;19927;-74
2022/08/30 01:59:09;;;;;;;;;;;13.20;99.90;;;;;;5012805;28;19992;-74
2022/08/30 02:01:35;;;;;;;;;;;13.20;99.90;;;;;;4987441;28;20674;-74
2022/08/30 02:04:01;;;;;;;;;;;13.20;99.90;;;;;;5013080;28;20044;-74
2022/08/30 02:06:27;;;;;;;;;;;13.20;99.90;;;;;;5018022;28;19920;-74
2022/08/30 02:08:52;;;;;;;;;;;13.10;99.90;;;;;;5017225;28;19925;-74
2022/08/30 02:11:18;;;;;;;;;;;13.10;99.90;;;;;;5000324;28;19993;-74
2022/08/30 02:13:44;;;;;;;;;;;13.10;99.90;;;;;;4987678;28;19922;-74
2022/08/30 02:16:14;;;;;;;;;;;13.20;99.90;;;;;;4990218;28;19917;-74
2022/08/30 02:18:39;;;;;;;;;;;13.10;99.90;;;;;;5010065;28;20332;-74
2022/08/30 02:21:06;;;;;;;;;;;13.20;99.90;;;;;;5001034;28;20376;-74
2022/08/30 02:23:31;;;;;;;;;;;13.20;99.90;;;;;;5005037;28;20288;-74
2022/08/30 02:25:57;;;;;;;;;;;13.20;99.90;;;;;;4998375;28;19924;-74
2022/08/30 02:28:24;;;;;;;;;;;13.20;99.90;;;;;;5005363;28;20355;-74
2022/08/30 02:30:50;;;;;;;;;;;13.20;99.90;;;;;;5015208;28;20561;-74
2022/08/30 02:33:16;;;;;;;;;;;13.10;99.90;;;;;;5009733;28;19917;-74
2022/08/30 02:35:41;;;;;;;;;;;13.20;99.90;;;;;;4993420;28;20507;-74
2022/08/30 02:38:07;;;;;;;;;;;13.10;99.90;;;;;;5005679;28;19929;-74
2022/08/30 02:40:33;;;;;;;;;;;13.10;99.90;;;;;;5020192;28;19917;-74
2022/08/30 02:42:58;;;;;;;;;;;13.10;99.90;;;;;;5017434;28;19910;-74
2022/08/30 02:45:24;;;;;;;;;;;13.10;99.90;;;;;;5020609;28;20415;-74
2022/08/30 02:47:49;;;;;;;;;;;13.10;99.90;;;;;;5009009;28;20851;-74
2022/08/30 02:50:15;;;;;;;;;;;13.10;99.90;;;;;;4997079;28;19929;-75
2022/08/30 02:52:41;;;;;;;;;;;13.10;99.90;;;;;;5002159;28;19921;-74
2022/08/30 02:55:07;;;;;;;;;;;13.10;99.90;;;;;;4997245;28;19924;-74
2022/08/30 02:57:32;;;;;;;;;;;13.10;99.90;;;;;;5010706;28;19963;-74
2022/08/30 02:59:58;;;;;;;;;;;13.20;99.90;;;;;;4998067;28;20382;-74
2022/08/30 03:02:24;;;;;;;;;;;13.20;99.90;;;;;;4990204;28;19917;-74
2022/08/30 03:04:50;;;;;;;;;;;13.10;99.90;;;;;;5003475;28;20280;-74
2022/08/30 03:07:15;;;;;;;;;;;13.10;99.90;;;;;;5021327;28;19975;-73
2022/08/30 03:09:41;;;;;;;;;;;13.00;99.90;;;;;;5005214;28;20152;-73
2022/08/30 03:12:07;;;;;;;;;;;13.00;99.90;;;;;;5010390;28;19913;-75
2022/08/30 03:14:35;;;;;;;;;;;13.00;99.90;;;;;;4987032;28;19951;-72
2022/08/30 03:17:01;;;;;;;;;;;12.90;99.90;;;;;;5017877;28;20293;-75
2022/08/30 03:19:26;;;;;;;;;;;12.90;99.90;;;;;;5017230;28;19917;-75
2022/08/30 03:21:52;;;;;;;;;;;12.90;99.90;;;;;;4991925;28;20392;-75
2022/08/30 03:24:18;;;;;;;;;;;12.90;99.90;;;;;;4992546;28;20094;-75
2022/08/30 03:26:43;;;;;;;;;;;12.80;99.90;;;;;;4984598;28;19928;-75
2022/08/30 03:29:09;;;;;;;;;;;12.80;99.90;;;;;;5004109;28;20384;-75
2022/08/30 03:31:35;;;;;;;;;;;12.70;99.90;;;;;;5014214;28;19967;-74
2022/08/30 03:34:01;;;;;;;;;;;12.70;99.90;;;;;;5019052;28;19917;-75
2022/08/30 03:36:27;;;;;;;;;;;12.60;99.90;;;;;;5011511;28;19966;-75
2022/08/30 03:38:52;;;;;;;;;;;12.60;99.90;;;;;;4993149;28;19918;-74
2022/08/30 03:41:18;;;;;;;;;;;12.60;99.90;;;;;;5022102;28;19979;-75
2022/08/30 03:43:46;;;;;;;;;;;12.50;99.90;;;;;;5004723;28;19921;-74
2022/08/30 03:46:12;;;;;;;;;;;12.50;99.90;;;;;;5003166;28;19913;-75
2022/08/30 03:48:38;;;;;;;;;;;12.50;99.90;;;;;;5015135;28;20355;-75
2022/08/30 03:51:03;;;;;;;;;;;12.50;99.90;;;;;;4990487;28;19956;-74
2022/08/30 03:53:29;;;;;;;;;;;12.50;99.90;;;;;;5006207;28;19924;-75
2022/08/30 03:55:54;;;;;;;;;;;12.50;99.90;;;;;;5010631;28;19929;-74
2022/08/30 03:58:20;;;;;;;;;;;12.60;99.90;;;;;;5009817;28;19975;-75
2022/08/30 04:00:45;;;;;;;;;;;12.50;99.90;;;;;;5022828;28;19936;-75
2022/08/30 04:03:11;;;;;;;;;;;12.40;99.90;;;;;;5008750;28;19943;-75
2022/08/30 04:05:36;;;;;;;;;;;12.40;99.90;;;;;;5008172;28;19929;-75
2022/08/30 04:08:02;;;;;;;;;;;12.40;99.90;;;;;;5010503;28;19931;-75
2022/08/30 04:10:28;;;;;;;;;;;12.40;99.90;;;;;;5002142;28;20358;-75
2022/08/30 04:12:53;;;;;;;;;;;12.40;99.90;;;;;;4990426;28;19918;-75
2022/08/30 04:15:19;;;;;;;;;;;12.40;99.90;;;;;;4964816;28;19913;-75
2022/08/30 04:17:45;;;;;;;;;;;12.40;99.90;;;;;;5006478;28;20419;-75
2022/08/30 04:20:11;;;;;;;;;;;12.40;99.90;;;;;;5021389;28;20270;-75
2022/08/30 04:22:36;;;;;;;;;;;12.40;99.90;;;;;;5012843;28;20486;-75
2022/08/30 04:25:02;;;;;;;;;;;12.40;99.90;;;;;;5008511;28;20644;-75
2022/08/30 04:27:28;;;;;;;;;;;12.40;99.90;;;;;;5018535;28;20283;-75
2022/08/30 04:29:54;;;;;;;;;;;12.40;99.90;;;;;;5001684;28;20305;-75
2022/08/30 04:32:20;;;;;;;;;;;12.40;99.90;;;;;;5015884;28;19952;-75
2022/08/30 04:34:45;;;;;;;;;;;12.40;99.90;;;;;;5011531;28;19961;-75
2022/08/30 04:37:11;;;;;;;;;;;12.40;99.90;;;;;;5006315;28;20358;-75
2022/08/30 04:39:37;;;;;;;;;;;12.50;99.90;;;;;;5019876;28;20284;-75
2022/08/30 04:42:02;;;;;;;;;;;12.50;99.90;;;;;;5003871;28;20085;-75
2022/08/30 04:44:28;;;;;;;;;;;12.50;99.90;;;;;;4999699;28;19918;-75
2022/08/30 04:46:54;;;;;;;;;;;12.50;99.90;;;;;;5008027;28;20123;-75
2022/08/30 04:49:19;;;;;;;;;;;12.50;99.90;;;;;;4984092;28;20026;-73
2022/08/30 04:51:45;;;;;;;;;;;12.50;99.90;;;;;;5013751;28;20408;-74
2022/08/30 04:54:11;;;;;;;;;;;12.50;99.90;;;;;;5020581;28;20026;-74
2022/08/30 04:56:36;;;;;;;;;;;12.50;99.90;;;;;;5007222;28;19963;-74
2022/08/30 04:59:02;;;;;;;;;;;12.40;99.90;;;;;;5022472;28;19913;-73
2022/08/30 05:01:29;;;;;;;;;;;12.40;99.90;;;;;;5021338;28;19923;-74
2022/08/30 05:03:55;;;;;;;;;;;12.40;99.90;;;;;;5001531;28;19943;-74
2022/08/30 05:06:21;;;;;;;;;;;12.40;99.90;;;;;;5013514;28;19982;-74
2022/08/30 05:08:47;;;;;;;;;;;12.50;99.90;;;;;;5014123;28;19925;-74
2022/08/30 05:11:13;;;;;;;;;;;12.50;99.90;;;;;;5021011;28;19967;-73
2022/08/30 05:13:39;;;;;;;;;;;12.40;99.90;;;;;;5005963;28;20332;-73
2022/08/30 05:16:05;;;;;;;;;;;12.50;99.90;;;;;;5005860;28;19976;-73
2022/08/30 05:18:31;;;;;;;;;;;12.50;99.90;;;;;;5005503;28;20044;-73
2022/08/30 05:21:07;;;;;;;;;;;12.60;99.90;;;;;;5013538;28;19917;-72
2022/08/30 05:23:33;;;;;;;;;;;12.60;99.90;;;;;;5015987;28;20310;-73
2022/08/30 05:26:03;;;;;;;;;;;12.70;99.90;;;;;;5007726;28;20032;-74
2022/08/30 05:28:28;;;;;;;;;;;12.70;99.90;;;;;;5019003;28;19987;-73
2022/08/30 05:30:54;;;;;;;;;;;12.80;99.90;;;;;;5022307;28;20018;-72
2022/08/30 05:33:19;;;;;;;;;;;12.90;99.90;;;;;;5009600;28;20481;-73
2022/08/30 05:35:45;;;;;;;;;;;12.90;99.90;;;;;;5020088;28;20418;-72
2022/08/30 05:38:10;;;;;;;;;;;13.00;99.90;;;;;;5015835;28;20050;-73
2022/08/30 05:40:39;;;;;;;;;;;13.00;99.90;;;;;;5002520;28;20060;-73
2022/08/30 05:43:04;;;;;;;;;;;13.10;99.90;;;;;;5001794;28;20302;-73
2022/08/30 05:45:30;;;;;;;;;;;13.20;99.90;;;;;;5001536;28;20004;-73
2022/08/30 05:47:55;;;;;;;;;;;13.30;99.90;;;;;;5000973;28;19984;-73
2022/08/30 05:50:22;;;;;;;;;;;13.40;99.90;;;;;;5014587;28;19918;-73
2022/08/30 05:52:48;;;;;;;;;;;13.50;99.90;;;;;;5019739;28;20024;-73
2022/08/30 05:55:13;;;;;;;;;;;13.60;99.90;;;;;;5000513;28;20048;-73
2022/08/30 05:57:39;;;;;;;;;;;13.80;99.90;;;;;;5010862;28;19921;-73
2022/08/30 06:00:06;;;;;;;;;;;13.90;99.90;;;;;;5013863;28;20384;-73
2022/08/30 06:02:32;;;;;;;;;;;14.10;99.90;;;;;;5024102;28;19917;-73
2022/08/30 06:04:57;;;;;;;;;;;14.30;99.90;;;;;;5021199;28;19920;-73
2022/08/30 06:07:23;;;;;;;;;;;14.50;99.90;;;;;;5018182;28;20015;-73
2022/08/30 06:09:48;;;;;;;;;;;14.60;99.90;;;;;;5006287;28;19929;-73
2022/08/30 06:12:14;;;;;;;;;;;14.70;99.90;;;;;;4998107;28;19925;-73
2022/08/30 06:14:39;;;;;;;;;;;14.90;99.90;;;;;;5004481;28;19914;-73
2022/08/30 06:17:05;;;;;;;;;;;14.90;99.90;;;;;;5019709;28;20181;-73
2022/08/30 06:19:31;;;;;;;;;;;15.00;99.90;;;;;;5011076;28;20402;-73
2022/08/30 06:21:56;;;;;;;;;;;15.30;99.90;;;;;;5021751;28;20075;-73
2022/08/30 06:24:22;;;;;;;;;;;15.40;99.90;;;;;;5007672;28;20110;-73
2022/08/30 06:26:47;;;;;;;;;;;15.50;99.90;;;;;;5007850;28;19925;-73
2022/08/30 06:29:14;;;;;;;;;;;15.60;99.90;;;;;;5005009;28;19921;-73
2022/08/30 06:31:40;;;;;;;;;;;15.70;99.90;;;;;;5003840;28;20363;-73
2022/08/30 06:34:05;;;;;;;;;;;15.80;99.90;;;;;;4999841;28;19925;-73
2022/08/30 06:36:31;;;;;;;;;;;15.90;99.90;;;;;;4999394;28;19924;-74
2022/08/30 06:38:57;;;;;;;;;;;16.10;99.90;;;;;;5002974;28;19921;-73
2022/08/30 06:41:24;;;;;;;;;;;16.10;99.90;;;;;;5002646;28;19918;-73
2022/08/30 06:43:49;;;;;;;;;;;16.30;99.90;;;;;;5001073;28;20277;-73
2022/08/30 06:46:20;;;;;;;;;;;16.40;99.90;;;;;;4999849;28;19927;-73
2022/08/30 06:48:45;;;;;;;;;;;16.50;99.90;;;;;;5001809;28;19936;-73
2022/08/30 06:51:11;;;;;;;;;;;16.60;99.90;;;;;;5010651;28;19918;-73
2022/08/30 06:53:36;;;;;;;;;;;16.70;99.90;;;;;;5002064;28;19963;-73
2022/08/30 06:56:06;;;;;;;;;;;16.70;99.90;;;;;;5004198;28;19917;-73
2022/08/30 06:58:32;;;;;;;;;;;16.90;99.90;;;;;;5002746;28;19917;-73
2022/08/30 07:00:57;;;;;;;;;;;17.00;99.90;;;;;;5000851;28;20472;-73
2022/08/30 07:03:26;;;;;;;;;;;17.20;99.90;;;;;;5003158;28;19917;-73
2022/08/30 07:05:52;;;;;;;;;;;17.20;99.90;;;;;;5003122;28;19917;-73
2022/08/30 07:08:17;;;;;;;;;;;17.30;99.90;;;;;;5001080;28;19928;-73
2022/08/30 07:10:44;;;;;;;;;;;17.50;99.90;;;;;;5002143;28;20450;-73
2022/08/30 07:13:09;;;;;;;;;;;17.70;99.90;;;;;;5002994;28;19995;-74
2022/08/30 07:15:35;;;;;;;;;;;17.80;99.90;;;;;;5002248;28;20393;-73
2022/08/30 07:20:45;;;;;;;;;;;18.20;99.90;;;;;;5002354;28;19956;-73
2022/08/30 07:23:11;;;;;;;;;;;18.20;99.90;;;;;;5003538;28;20366;-73
2022/08/30 07:25:37;;;;;;;;;;;18.20;99.90;;;;;;5001367;28;20257;-73
2022/08/30 07:28:03;;;;;;;;;;;18.60;99.90;;;;;;5003851;28;19928;-73
2022/08/30 07:30:30;;;;;;;;;;;18.90;99.90;;;;;;5000195;28;20027;-73
2022/08/30 07:32:55;;;;;;;;;;;19.00;99.90;;;;;;4999848;28;20269;-73
2022/08/30 07:35:21;;;;;;;;;;;19.10;99.90;;;;;;4999668;28;19940;-74
2022/08/30 07:37:46;;;;;;;;;;;19.10;99.90;;;;;;5000727;28;19918;-73
2022/08/30 07:40:12;;;;;;;;;;;19.30;99.90;;;;;;5001818;28;20062;-73
2022/08/30 07:42:39;;;;;;;;;;;19.50;99.90;;;;;;5001213;28;19921;-73
2022/08/30 07:45:05;;;;;;;;;;;19.20;99.90;;;;;;5018136;28;19913;-73
2022/08/30 07:47:31;;;;;;;;;;;19.00;99.90;;;;;;5010097;28;20078;-73
2022/08/30 07:49:58;;;;;;;;;;;18.90;99.90;;;;;;5002850;28;19961;-73
2022/08/30 07:52:23;;;;;;;;;;;18.80;99.90;;;;;;5004014;28;20417;-73
2022/08/30 07:54:49;;;;;;;;;;;18.80;99.90;;;;;;4998136;28;20069;-73
2022/08/30 07:57:14;;;;;;;;;;;18.90;99.90;;;;;;4995614;28;19924;-74
2022/08/30 07:59:40;;;;;;;;;;;19.10;99.90;;;;;;4993559;28;20013;-73
2022/08/30 08:02:05;;;;;;;;;;;19.50;99.90;;;;;;4992188;28;19921;-74
2022/08/30 08:04:33;;;;;;;;;;;19.70;99.90;;;;;;4991379;28;20048;-72
2022/08/30 08:06:58;;;;;;;;;;;20.20;99.90;;;;;;4989845;28;19933;-72
2022/08/30 08:09:24;;;;;;;;;;;20.50;99.90;;;;;;5003918;28;19918;-73
2022/08/30 08:11:49;;;;;;;;;;;20.50;99.90;;;;;;5001311;28;20362;-73
2022/08/30 08:14:15;;;;;;;;;;;20.30;99.90;;;;;;4993611;28;20311;-73
2022/08/30 08:16:43;;;;;;;;;;;20.20;99.90;;;;;;4996562;28;19925;-73
2022/08/30 08:19:09;;;;;;;;;;;20.40;99.90;;;;;;4996017;28;19963;-74
2022/08/30 08:21:35;;;;;;;;;;;20.50;99.90;;;;;;4995488;28;19996;-73
2022/08/30 08:24:01;;;;;;;;;;;20.70;99.90;;;;;;4993968;28;19931;-72
2022/08/30 08:26:26;;;;;;;;;;;20.80;99.90;;;;;;4997438;28;20372;-73
2022/08/30 08:28:52;;;;;;;;;;;20.90;99.90;;;;;;4993028;28;19930;-73
2022/08/30 08:31:19;;;;;;;;;;;21.00;99.90;;;;;;5008878;28;20372;-76
2022/08/30 08:33:45;;;;;;;;;;;21.00;99.90;;;;;;4986422;28;20157;-73
2022/08/30 08:36:10;;;;;;;;;;;21.30;99.90;;;;;;4992922;28;19918;-74
2022/08/30 08:38:36;;;;;;;;;;;21.20;99.90;;;;;;4999005;28;19921;-73
2022/08/30 08:41:04;;;;;;;;;;;21.20;99.90;;;;;;5001197;28;20329;-73
2022/08/30 08:43:33;;;;;;;;;;;21.10;99.90;;;;;;4992385;28;19918;-72
2022/08/30 08:46:09;;;;;;;;;;;21.10;99.90;;;;;;4994808;28;19924;-73
2022/08/30 08:48:37;;;;;;;;;;;21.10;99.90;;;;;;4992704;28;20345;-73
2022/08/30 08:53:58;;;;;;;;;;;21.30;99.90;;;;;;4996669;28;19924;-74
2022/08/30 08:56:23;;;;;;;;;;;21.30;99.90;;;;;;5005843;28;19943;-73
2022/08/30 08:58:50;;;;;;;;;;;21.10;99.90;;;;;;5003855;28;20386;-72
2022/08/30 09:01:17;;;;;;;;;;;21.00;99.90;;;;;;5001785;28;19921;-73
2022/08/30 09:03:44;;;;;;;;;;;20.90;99.90;;;;;;5008976;28;20372;-73
2022/08/30 09:06:19;;;;;;;;;;;20.80;99.90;;;;;;4993033;28;19925;-73
2022/08/30 09:08:44;;;;;;;;;;;20.90;99.90;;;;;;5009056;23;20343;-69
2022/08/30 09:11:15;;;;;;;;;;;21.10;99.90;;;;;;5020069;28;20016;-69
2022/08/30 09:13:41;;;;;;;;;;;21.30;99.90;;;;;;5018324;28;19933;-71
2022/08/30 09:16:07;;;;;;;;;;;21.50;99.90;;;;;;5027645;28;19947;-70
2022/08/30 09:18:39;;;;;;;;;;;22.00;99.90;;;;;;5019488;28;19975;-70
2022/08/30 09:21:06;;;;;;;;;;;22.10;99.90;;;;;;5017707;28;19928;-69
2022/08/30 09:23:32;;;;;;;;;;;22.10;99.90;;;;;;5017966;28;20394;-69
2022/08/30 09:26:02;;;;;;;;;;;22.00;99.90;;;;;;5017184;28;19924;-70
2022/08/30 09:28:28;;;;;;;;;;;21.90;99.90;;;;;;5047275;28;19986;-70
2022/08/30 09:31:25;;;;;;;;;;;21.90;99.90;;;;;;5030976;28;19965;-68
2022/08/30 09:34:02;;;;;;;;;;;22.20;99.90;;;;;;5011365;28;19917;-69
2022/08/30 09:36:51;;;;;;;;;;;22.90;99.90;;;;;;5018800;28;19917;-69
2022/08/30 09:39:38;;;;;;;;;;;23.80;99.90;;;;;;5012329;28;19923;-69
2022/08/30 09:42:12;;;;;;;;;;;25.30;99.90;;;;;;5002818;28;19922;-69
2022/08/30 09:44:38;;;;;;;;;;;27.50;99.90;;;;;;5012588;28;19965;-70
2022/08/30 09:47:05;;;;;;;;;;;28.30;96.60;;;;;;5019532;28;20315;-70
2022/08/30 09:49:34;;;;;;;;;;;28.30;95.50;;;;;;5021984;28;19983;-70
2022/08/30 09:52:02;;;;;;;;;;;28.00;95.80;;;;;;5022717;28;20011;-69
2022/08/30 09:54:51;;;;;;;;;;;27.20;95.70;;;;;;5023715;28;20126;-69
2022/08/30 09:57:42;;;;;;;;;;;26.60;99.60;;;;;;5012668;28;20354;-69
2022/08/30 10:00:16;;;;;;;;;;;26.40;99.00;;;;;;5017640;28;19913;-69
2022/08/30 10:03:00;;;;;;;;;;;27.10;98.00;;;;;;5020278;28;19963;-69
2022/08/30 10:05:26;;;;;;;;;;;27.70;95.60;;;;;;5415056;23;19933;-71
2022/08/30 10:07:54;;;;;;;;;;;28.00;94.10;;;;;;4995402;28;20383;-72
2022/08/30 10:10:39;;;;;;;;;;;27.30;95.20;;;;;;5006452;28;20272;-72
2022/08/30 10:13:04;;;;;;;;;;;26.50;97.30;;;;;;5014625;28;19913;-72
2022/08/30 10:15:37;;;;;;;;;;;26.20;99.50;;;;;;5014126;28;19917;-73
2022/08/30 10:18:15;;;;;;;;;;;26.10;99.90;;;;;;5017191;28;19920;-74
2022/08/30 10:20:50;;;;;;;;;;;26.20;99.20;;;;;;5017601;28;19925;-71
2022/08/30 10:23:26;;;;;;;;;;;26.50;99.60;;;;;;5015129;28;19921;-75
2022/08/30 10:25:53;;;;;;;;;;;26.40;99.40;;;;;;5018313;28;19917;-74
2022/08/30 10:28:41;;;;;;;;;;;26.40;99.80;;;;;;5020312;28;20087;-74
2022/08/30 10:31:11;;;;;;;;;;;26.10;98.10;;;;;;4998961;28;20322;-73
2022/08/30 10:33:42;;;;;;;;;;;25.80;98.90;;;;;;5013844;28;19913;-72
2022/08/30 10:36:12;;;;;;;;;;;25.80;99.90;;;;;;5019063;28;19917;-74
2022/08/30 10:38:48;;;;;;;;;;;25.80;99.90;;;;;;5019898;28;20032;-74
2022/08/30 10:41:26;;;;;;;;;;;25.80;99.40;;;;;;5012376;28;20316;-73
2022/08/30 10:44:10;;;;;;;;;;;25.90;99.90;;;;;;5028245;28;20413;-74
2022/08/30 10:46:51;;;;;;;;;;;26.10;99.90;;;;;;5018721;28;19936;-74
2022/08/30 10:49:24;;;;;;;;;;;26.60;99.80;;;;;;5018121;28;19929;-73
2022/08/30 10:52:08;;;;;;;;;;;26.80;97.70;;;;;;5019337;28;19963;-74
2022/08/30 10:54:46;;;;;;;;;;;26.90;99.10;;;;;;5017992;28;19960;-75
2022/08/30 10:57:11;;;;;;;;;;;27.00;98.60;;;;;;5017763;28;19916;-74
2022/08/30 10:59:41;;;;;;;;;;;26.90;98.30;;;;;;5017120;28;19917;-74
2022/08/30 11:02:25;;;;;;;;;;;26.80;98.20;;;;;;5006662;28;19918;-74
2022/08/30 11:05:09;;;;;;;;;;;26.40;97.50;;;;;;5022528;28;19916;-73
2022/08/30 11:07:40;;;;;;;;;;;26.20;99.90;;;;;;5018726;28;19937;-73
2022/08/30 11:10:18;;;;;;;;;;;26.10;96.90;;;;;;5009145;28;20262;-74
2022/08/30 11:12:53;;;;;;;;;;;26.10;99.90;;;;;;5033742;28;20365;-75
2022/08/30 11:15:30;;;;;;;;;;;26.00;98.10;;;;;;5020446;28;19933;-74
2022/08/30 11:17:55;;;;;;;;;;;26.20;96.80;;;;;;5022850;28;19921;-74
2022/08/30 11:20:41;;;;;;;;;;;26.20;97.20;;;;;;5024821;28;19974;-73
2022/08/30 11:23:09;;;;;;;;;;;26.80;98.40;;;;;;5012055;28;19921;-74
2022/08/30 11:26:01;;;;;;;;;;;26.80;96.40;;;;;;5009999;28;19921;-74
2022/08/30 11:28:36;;;;;;;;;;;26.60;98.50;;;;;;5015550;28;19931;-72
2022/08/30 11:31:16;;;;;;;;;;;26.30;98.30;;;;;;5016822;28;20071;-74
2022/08/30 11:33:46;;;;;;;;;;;26.10;99.50;;;;;;5018628;28;20304;-74
2022/08/30 11:36:34;;;;;;;;;;;26.10;99.80;;;;;;5021389;28;19920;-74
2022/08/30 11:39:02;;;;;;;;;;;26.20;99.90;;;;;;5008540;28;20288;-73
2022/08/30 11:41:28;;;;;;;;;;;26.20;99.40;;;;;;5010920;28;20265;-74
2022/08/30 11:43:55;;;;;;;;;;;25.80;99.40;;;;;;5009236;28;19975;-74
2022/08/30 11:46:27;;;;;;;;;;;25.40;99.30;;;;;;5011114;28;20028;-74
2022/08/30 11:49:04;;;;;;;;;;;24.90;99.90;;;;;;5007279;28;19968;-73
2022/08/30 11:51:39;;;;;;;;;;;24.50;99.90;;;;;;5024729;28;19922;-74
2022/08/30 11:54:20;;;;;;;;;;;24.40;99.90;;;;;;5006379;28;19948;-74
2022/08/30 11:56:57;;;;;;;;;;;24.30;99.90;;;;;;5008623;28;20023;-73
2022/08/30 11:59:25;;;;;;;;;;;24.40;99.90;;;;;;5008935;28;20309;-74
2022/08/30 12:01:51;;;;;;;;;;;24.70;99.90;;;;;;5008509;28;19921;-73
2022/08/30 12:04:17;;;;;;;;;;;25.10;99.90;;;;;;5002786;28;20341;-74
2022/08/30 12:06:45;;;;;;;;;;;25.70;99.90;;;;;;5006468;28;19932;-73
2022/08/30 12:09:31;;;;;;;;;;;26.10;99.40;;;;;;4999214;28;19961;-74
2022/08/30 12:12:16;;;;;;;;;;;26.00;97.60;;;;;;5009399;28;19975;-73
2022/08/30 12:14:53;;;;;;;;;;;25.80;99.40;;;;;;5001056;28;19944;-74
2022/08/30 12:20:21;;;;;;;;;;;25.40;97.30;;;;;;4995343;28;19928;-74
2022/08/30 12:22:47;;;;;;;;;;;25.20;99.90;;;;;;5000362;28;20447;-74
2022/08/30 12:25:32;;;;;;;;;;;25.40;99.60;;;;;;4993946;28;19917;-74
2022/08/30 12:28:11;;;;;;;;;;;25.50;97.80;;;;;;4999686;28;20355;-74
2022/08/30 12:30:38;;;;;;;;;;;25.90;97.50;;;;;;5017741;28;20020;-74
2022/08/30 12:33:04;;;;;;;;;;;26.00;97.00;;;;;;5006740;28;19921;-74
2022/08/30 12:35:30;;;;;;;;;;;25.80;97.10;;;;;;5001019;28;20497;-74
2022/08/30 12:38:00;;;;;;;;;;;25.60;96.70;;;;;;5000249;28;19929;-73
2022/08/30 12:40:26;;;;;;;;;;;25.40;97.20;;;;;;5000833;28;19991;-74
2022/08/30 12:42:53;;;;;;;;;;;25.20;97.00;;;;;;5006159;28;19917;-74
2022/08/30 12:45:20;;;;;;;;;;;24.70;96.80;;;;;;5015807;28;19924;-73
2022/08/30 12:47:46;;;;;;;;;;;24.10;98.20;;;;;;5001564;28;19921;-74
2022/08/30 12:50:13;;;;;;;;;;;23.80;99.20;;;;;;5000924;28;19917;-74
2022/08/30 12:52:40;;;;;;;;;;;24.20;99.90;;;;;;4991917;28;19948;-74
2022/08/30 12:55:16;;;;;;;;;;;25.00;99.90;;;;;;4996586;28;19921;-73
2022/08/30 12:57:53;;;;;;;;;;;25.90;99.90;;;;;;4996811;28;19953;-73
2022/08/30 13:00:41;;;;;;;;;;;26.60;95.30;;;;;;4998591;28;19917;-74
2022/08/30 13:03:26;;;;;;;;;;;27.10;96.30;;;;;;4983051;28;19923;-74
2022/08/30 13:05:53;;;;;;;;;;;27.20;91.90;;;;;;4993948;28;20996;-73
2022/08/30 13:08:26;;;;;;;;;;;27.00;91.70;;;;;;5017217;28;20518;-73
2022/08/30 13:10:54;;;;;;;;;;;26.90;93.60;;;;;;5017714;28;19917;-74
2022/08/30 13:13:37;;;;;;;;;;;26.90;92.40;;;;;;5019620;28;20026;-73
2022/08/30 13:16:06;;;;;;;;;;;26.80;90.30;;;;;;5012156;28;19991;-74
2022/08/30 13:18:32;;;;;;;;;;;26.80;90.50;;;;;;5016528;28;19957;-74
2022/08/30 13:21:16;;;;;;;;;;;26.70;90.30;;;;;;5019510;28;20016;-74
2022/08/30 13:23:42;;;;;;;;;;;26.80;90.00;;;;;;5021699;28;19916;-73
2022/08/30 13:26:07;;;;;;;;;;;27.10;92.90;;;;;;5023723;28;19916;-75
2022/08/30 13:28:45;;;;;;;;;;;27.30;89.70;;;;;;5019621;28;20452;-74
2022/08/30 13:31:10;;;;;;;;;;;27.30;89.00;;;;;;5028202;28;19913;-73
2022/08/30 13:33:36;;;;;;;;;;;27.40;90.90;;;;;;5018189;28;19917;-74
2022/08/30 13:36:01;;;;;;;;;;;27.60;90.00;;;;;;5015231;28;19923;-74
2022/08/30 13:38:27;;;;;;;;;;;27.80;90.70;;;;;;5024518;28;19952;-74
2022/08/30 13:40:52;;;;;;;;;;;27.90;90.70;;;;;;5030170;28;20339;-74
2022/08/30 13:43:18;;;;;;;;;;;28.00;82.60;;;;;;5026874;28;20534;-74
2022/08/30 13:45:43;;;;;;;;;;;27.70;84.20;;;;;;5017853;28;19979;-73
2022/08/30 13:48:11;;;;;;;;;;;27.70;87.70;;;;;;5032434;28;20002;-74
2022/08/30 13:50:36;;;;;;;;;;;27.80;79.80;;;;;;5018011;28;20346;-73
2022/08/30 13:53:02;;;;;;;;;;;27.20;85.00;;;;;;5017565;28;19921;-73
2022/08/30 13:55:28;;;;;;;;;;;27.20;85.00;;;;;;5020093;28;20373;-73
2022/08/30 13:57:53;;;;;;;;;;;27.10;84.10;;;;;;5027952;28;19917;-73
2022/08/30 14:00:20;;;;;;;;;;;27.00;86.70;;;;;;5020409;28;19940;-73
2022/08/30 14:02:46;;;;;;;;;;;27.00;83.90;;;;;;5025583;28;19921;-74
2022/08/30 14:05:12;;;;;;;;;;;27.30;85.40;;;;;;5025597;28;20320;-74
2022/08/30 14:07:37;;;;;;;;;;;27.30;87.20;;;;;;5018060;28;20581;-73
2022/08/30 14:10:03;;;;;;;;;;;27.20;83.40;;;;;;5014044;28;20010;-74
2022/08/30 14:12:29;;;;;;;;;;;26.90;84.00;;;;;;4997931;28;20000;-74
2022/08/30 14:14:55;;;;;;;;;;;26.60;85.10;;;;;;5016617;28;20378;-73
2022/08/30 14:17:24;;;;;;;;;;;26.40;87.40;;;;;;5025311;28;20008;-73
2022/08/30 14:19:49;;;;;;;;;;;26.30;87.80;;;;;;5029698;28;19932;-74
2022/08/30 14:22:18;;;;;;;;;;;26.10;83.40;;;;;;5031692;28;19974;-73
2022/08/30 14:24:44;;;;;;;;;;;25.90;82.80;;;;;;5022735;28;19917;-74
2022/08/30 14:27:09;;;;;;;;;;;25.50;83.50;;;;;;5022489;28;19917;-74
2022/08/30 14:29:35;;;;;;;;;;;25.10;87.50;;;;;;5037777;28;19917;-74
2022/08/30 14:32:00;;;;;;;;;;;24.80;85.50;;;;;;5025120;28;19924;-73